createdAt,value
2024-02-10T00:01:49.974Z,10.62
2024-02-10T00:04:19.941Z,10.56
2024-02-10T00:06:49.170Z,10.59
2024-02-10T00:09:15.741Z,10.56
2024-02-10T00:11:42.767Z,10.53
2024-02-10T00:14:12.190Z,10.52
2024-02-10T00:16:39.264Z,10.56
2024-02-10T00:19:11.352Z,10.59
2024-02-10T00:21:39.596Z,10.55
2024-02-10T00:24:06.490Z,10.58
2024-02-10T00:26:33.647Z,10.60
2024-02-10T00:29:00.607Z,10.56
2024-02-10T00:31:29.132Z,10.53
2024-02-10T00:33:59.043Z,10.52
2024-02-10T00:36:26.342Z,10.55
2024-02-10T00:38:53.077Z,10.53
2024-02-10T00:41:20.837Z,10.58
2024-02-10T00:43:47.737Z,10.52
2024-02-10T00:46:17.865Z,10.53
2024-02-10T00:48:54.863Z,10.55
2024-02-10T00:51:22.271Z,10.56
2024-02-10T00:53:48.994Z,10.53
2024-02-10T00:56:15.687Z,10.60
2024-02-10T01:00:38.114Z,10.48
2024-02-10T01:03:10.012Z,10.53
2024-02-10T01:05:39.199Z,10.52
2024-02-10T01:08:07.069Z,10.50
2024-02-10T01:10:33.523Z,10.50
2024-02-10T01:13:04.581Z,10.55
2024-02-10T01:15:31.536Z,10.56
2024-02-10T01:18:02.017Z,10.62
2024-02-10T01:20:30.186Z,10.53
2024-02-10T01:22:58.754Z,10.50
2024-02-10T01:25:25.949Z,10.52
2024-02-10T01:27:52.685Z,10.52
2024-02-10T01:30:21.332Z,10.55
2024-02-10T01:32:48.552Z,10.50
2024-02-10T01:35:19.015Z,10.53
2024-02-10T01:37:45.562Z,10.53
2024-02-10T01:40:12.896Z,10.52
2024-02-10T01:42:40.491Z,10.48
2024-02-10T01:45:15.521Z,10.59
2024-02-10T01:47:46.705Z,10.56
2024-02-10T01:50:14.707Z,10.46
2024-02-10T01:52:42.065Z,10.49
2024-02-10T01:55:11.290Z,10.53
2024-02-10T01:57:38.477Z,10.53
2024-02-10T02:00:14.720Z,10.52
2024-02-10T02:02:44.508Z,10.53
2024-02-10T02:05:11.049Z,10.50
2024-02-10T02:07:39.785Z,10.48
2024-02-10T02:10:10.488Z,10.53
2024-02-10T02:12:49.246Z,10.50
2024-02-10T02:15:18.198Z,10.56
2024-02-10T02:17:45.500Z,10.55
2024-02-10T02:20:13.967Z,10.53
2024-02-10T02:22:52.591Z,10.55
2024-02-10T02:25:19.752Z,10.55
2024-02-10T02:27:47.102Z,10.55
2024-02-10T02:30:15.652Z,10.53
2024-02-10T02:32:42.228Z,10.52
2024-02-10T02:35:12.188Z,10.55
2024-02-10T02:37:43.414Z,10.49
2024-02-10T02:40:10.939Z,10.46
2024-02-10T02:42:37.948Z,10.41
2024-02-10T02:45:07.476Z,10.38
2024-02-10T02:47:37.465Z,10.37
2024-02-10T02:50:05.795Z,10.33
2024-02-10T02:52:32.589Z,10.29
2024-02-10T02:55:00.774Z,10.28
2024-02-10T02:57:29.263Z,10.29
2024-02-10T02:59:55.731Z,10.15
2024-02-10T03:02:23.388Z,10.11
2024-02-10T03:04:49.936Z,10.00
2024-02-10T03:07:19.674Z,10.02
2024-02-10T03:09:46.863Z,10.11
2024-02-10T03:12:13.360Z,10.05
2024-02-10T03:14:40.830Z,10.05
2024-02-10T03:17:12.055Z,10.05
2024-02-10T03:19:39.281Z,9.93
2024-02-10T03:22:07.084Z,9.93
2024-02-10T03:24:34.857Z,9.91
2024-02-10T03:27:04.154Z,9.89
2024-02-10T03:29:31.061Z,9.89
2024-02-10T03:31:57.669Z,9.80
2024-02-10T03:34:24.335Z,9.76
2024-02-10T03:36:50.879Z,9.74
2024-02-10T03:39:17.803Z,9.63
2024-02-10T03:41:44.245Z,9.59
2024-02-10T03:44:10.677Z,9.39
2024-02-10T03:46:37.234Z,9.56
2024-02-10T03:49:03.717Z,9.54
2024-02-10T03:51:31.069Z,9.56
2024-02-10T03:53:57.617Z,9.57
2024-02-10T03:56:29.470Z,9.56
2024-02-10T03:58:56.132Z,9.60
2024-02-10T04:01:22.799Z,9.53
2024-02-10T04:03:49.680Z,9.50
2024-02-10T04:06:17.032Z,9.52
2024-02-10T04:08:48.209Z,9.52
2024-02-10T04:11:17.642Z,9.43
2024-02-10T04:13:44.659Z,9.40
2024-02-10T04:16:14.911Z,9.39
2024-02-10T04:18:42.596Z,9.29
2024-02-10T04:21:10.732Z,9.40
2024-02-10T04:23:41.364Z,9.35
2024-02-10T04:26:08.309Z,9.32
2024-02-10T04:28:35.114Z,9.35
2024-02-10T04:31:01.772Z,9.32
2024-02-10T04:33:28.463Z,9.16
2024-02-10T04:35:55.068Z,9.28
2024-02-10T04:38:23.180Z,9.32
2024-02-10T04:40:51.327Z,9.26
2024-02-10T04:43:18.941Z,9.31
2024-02-10T04:45:49.515Z,9.28
2024-02-10T04:48:19.943Z,9.18
2024-02-10T04:50:46.758Z,9.18
2024-02-10T04:53:16.707Z,9.14
2024-02-10T04:55:44.884Z,9.15
2024-02-10T04:58:15.682Z,9.21
2024-02-10T05:00:42.674Z,9.14
2024-02-10T05:03:09.860Z,9.08
2024-02-10T05:05:36.520Z,9.11
2024-02-10T05:08:03.333Z,9.04
2024-02-10T05:10:30.185Z,9.01
2024-02-10T05:12:58.422Z,9.05
2024-02-10T05:15:27.125Z,9.07
2024-02-10T05:17:55.174Z,9.04
2024-02-10T05:20:23.987Z,8.94
2024-02-10T05:23:02.915Z,8.94
2024-02-10T05:25:38.509Z,8.97
2024-02-10T05:28:08.020Z,8.88
2024-02-10T05:30:34.867Z,8.81
2024-02-10T05:33:03.176Z,8.85
2024-02-10T05:35:31.184Z,8.78
2024-02-10T05:37:59.464Z,8.75
2024-02-10T05:40:29.875Z,8.80
2024-02-10T05:43:07.218Z,8.80
2024-02-10T05:45:34.653Z,8.77
2024-02-10T05:48:01.540Z,8.70
2024-02-10T05:50:28.335Z,8.75
2024-02-10T05:52:58.928Z,8.60
2024-02-10T05:55:27.751Z,8.67
2024-02-10T05:58:07.588Z,8.71
2024-02-10T06:00:34.766Z,8.65
2024-02-10T06:03:06.290Z,8.65
2024-02-10T06:05:33.340Z,8.70
2024-02-10T06:08:02.012Z,8.59
2024-02-10T06:10:29.000Z,8.64
2024-02-10T06:12:55.899Z,8.63
2024-02-10T06:15:25.009Z,8.54
2024-02-10T06:17:59.315Z,8.54
2024-02-10T06:20:26.425Z,8.39
2024-02-10T06:22:57.025Z,8.40
2024-02-10T06:25:26.810Z,8.42
2024-02-10T06:28:00.521Z,8.42
2024-02-10T06:30:32.257Z,8.32
2024-02-10T06:33:00.232Z,8.40
2024-02-10T06:35:27.575Z,8.44
2024-02-10T06:37:55.582Z,8.30
2024-02-10T06:40:23.969Z,8.43
2024-02-10T06:42:51.911Z,8.37
2024-02-10T06:45:23.060Z,8.22
2024-02-10T06:47:52.499Z,8.29
2024-02-10T06:50:27.763Z,8.44
2024-02-10T06:52:55.205Z,8.46
2024-02-10T06:55:22.131Z,8.44
2024-02-10T06:57:49.467Z,8.43
2024-02-10T07:00:17.957Z,8.46
2024-02-10T07:02:47.980Z,8.53
2024-02-10T07:05:17.814Z,8.59
2024-02-10T07:07:48.180Z,8.61
2024-02-10T07:10:20.631Z,8.59
2024-02-10T07:12:50.748Z,8.57
2024-02-10T07:15:21.879Z,8.63
2024-02-10T07:17:51.856Z,8.74
2024-02-10T07:20:23.310Z,8.84
2024-02-10T07:22:58.678Z,8.92
2024-02-10T07:25:26.786Z,8.95
2024-02-10T07:27:55.006Z,9.08
2024-02-10T07:32:36.176Z,9.16
2024-02-10T07:35:03.541Z,9.29
2024-02-10T07:37:30.185Z,9.32
2024-02-10T07:39:58.106Z,9.38
2024-02-10T07:42:26.948Z,9.44
2024-02-10T07:44:56.565Z,9.47
2024-02-10T07:47:23.627Z,9.57
2024-02-10T07:49:54.508Z,9.67
2024-02-10T07:52:21.275Z,9.73
2024-02-10T07:54:50.155Z,9.73
2024-02-10T07:57:23.230Z,9.76
2024-02-10T07:59:53.306Z,9.94
2024-02-10T08:02:26.829Z,10.14
2024-02-10T08:04:59.536Z,10.04
2024-02-10T08:07:31.519Z,10.42
2024-02-10T08:09:59.701Z,10.44
2024-02-10T08:12:31.998Z,10.59
2024-02-10T08:15:05.716Z,10.59
2024-02-10T08:17:32.859Z,10.79
2024-02-10T08:20:01.043Z,10.70
2024-02-10T08:22:31.792Z,10.83
2024-02-10T08:25:00.955Z,10.81
2024-02-10T08:27:29.720Z,10.86
2024-02-10T08:29:57.443Z,10.79
2024-02-10T08:32:25.758Z,11.17
2024-02-10T08:34:54.831Z,11.47
2024-02-10T08:37:21.865Z,11.74
2024-02-10T08:39:48.750Z,11.44
2024-02-10T08:42:17.703Z,11.49
2024-02-10T08:44:47.958Z,11.62
2024-02-10T08:47:14.815Z,11.79
2024-02-10T08:49:42.116Z,11.85
2024-02-10T08:52:17.580Z,11.93
2024-02-10T08:54:45.437Z,11.74
2024-02-10T08:57:12.302Z,12.23
2024-02-10T08:59:44.826Z,12.21
2024-02-10T09:02:11.609Z,12.61
2024-02-10T09:04:41.740Z,12.34
2024-02-10T09:07:09.154Z,12.47
2024-02-10T09:09:36.381Z,12.85
2024-02-10T09:12:03.747Z,12.61
2024-02-10T09:14:35.743Z,12.93
2024-02-10T09:17:02.446Z,12.99
2024-02-10T09:19:29.168Z,13.07
2024-02-10T09:21:56.176Z,12.99
2024-02-10T09:24:27.207Z,13.53
2024-02-10T09:26:55.042Z,13.23
2024-02-10T09:29:23.772Z,13.33
2024-02-10T09:31:53.720Z,13.27
2024-02-10T09:34:22.287Z,13.06
2024-02-10T09:36:49.010Z,13.07
2024-02-10T09:39:20.396Z,12.82
2024-02-10T09:41:48.272Z,12.85
2024-02-10T09:44:18.427Z,13.05
2024-02-10T09:46:51.677Z,13.36
2024-02-10T09:49:19.664Z,13.48
2024-02-10T09:51:46.743Z,13.87
2024-02-10T09:54:14.997Z,13.36
2024-02-10T09:56:44.400Z,13.39
2024-02-10T09:59:17.873Z,13.47
2024-02-10T10:01:46.681Z,13.98
2024-02-10T10:04:13.723Z,14.04
2024-02-10T10:06:44.997Z,13.73
2024-02-10T10:09:17.918Z,13.83
2024-02-10T10:11:46.105Z,14.02
2024-02-10T10:14:18.005Z,13.81
2024-02-10T10:16:58.656Z,13.74
2024-02-10T10:19:30.001Z,13.84
2024-02-10T10:21:57.908Z,13.93
2024-02-10T10:24:29.647Z,13.91
2024-02-10T10:26:57.916Z,14.30
2024-02-10T10:29:24.843Z,14.46
2024-02-10T10:31:54.459Z,14.33
2024-02-10T10:34:21.618Z,14.57
2024-02-10T10:36:53.845Z,15.25
2024-02-10T10:39:23.011Z,15.27
2024-02-10T10:41:49.960Z,15.83
2024-02-10T10:44:19.116Z,15.42
2024-02-10T10:46:47.009Z,16.10
2024-02-10T10:49:16.301Z,16.32
2024-02-10T10:52:02.765Z,15.91
2024-02-10T10:54:34.608Z,15.79
2024-02-10T10:57:04.909Z,15.72
2024-02-10T10:59:36.533Z,15.65
2024-02-10T11:02:16.349Z,15.18
2024-02-10T11:04:47.161Z,16.17
2024-02-10T11:07:17.894Z,16.90
2024-02-10T11:09:51.347Z,17.53
2024-02-10T11:12:17.811Z,18.39
2024-02-10T11:14:53.019Z,17.03
2024-02-10T11:17:20.593Z,16.96
2024-02-10T11:20:07.243Z,17.54
2024-02-10T11:22:43.765Z,17.95
2024-02-10T11:25:17.605Z,17.19
2024-02-10T11:27:49.151Z,17.06
2024-02-10T11:30:17.127Z,16.31
2024-02-10T11:32:44.264Z,15.45
2024-02-10T11:35:14.052Z,15.46
2024-02-10T11:37:47.051Z,15.34
2024-02-10T11:40:18.756Z,14.95
2024-02-10T11:42:45.320Z,14.72
2024-02-10T11:45:12.301Z,15.27
2024-02-10T11:47:39.030Z,15.34
2024-02-10T11:50:06.590Z,15.46
2024-02-10T11:52:33.543Z,15.48
2024-02-10T11:55:01.397Z,15.52
2024-02-10T11:57:30.872Z,15.91
2024-02-10T11:59:57.460Z,16.38
2024-02-10T12:02:24.917Z,15.89
2024-02-10T12:04:52.338Z,15.62
2024-02-10T12:07:19.358Z,15.15
2024-02-10T12:09:46.992Z,15.49
2024-02-10T12:12:15.245Z,15.00
2024-02-10T12:14:42.020Z,14.69
2024-02-10T12:17:08.597Z,14.80
2024-02-10T12:19:42.895Z,15.12
2024-02-10T12:22:10.775Z,14.97
2024-02-10T12:24:44.742Z,14.79
2024-02-10T12:27:12.410Z,14.57
2024-02-10T12:29:41.918Z,14.33
2024-02-10T12:32:12.431Z,14.09
2024-02-10T12:34:39.542Z,14.15
2024-02-10T12:37:09.871Z,14.18
2024-02-10T12:39:39.804Z,13.94
2024-02-10T12:42:06.742Z,13.88
2024-02-10T12:44:33.480Z,13.88
2024-02-10T12:47:01.380Z,13.95
2024-02-10T12:49:28.182Z,13.81
2024-02-10T12:51:56.763Z,13.90
2024-02-10T12:54:24.402Z,13.91
2024-02-10T12:56:50.963Z,13.83
2024-02-10T12:59:19.380Z,13.74
2024-02-10T13:01:45.932Z,13.85
2024-02-10T13:04:12.701Z,13.74
2024-02-10T13:06:41.667Z,13.67
2024-02-10T13:09:08.907Z,13.57
2024-02-10T13:11:35.536Z,13.54
2024-02-10T13:14:03.533Z,13.53
2024-02-10T13:16:30.040Z,13.51
2024-02-10T13:18:59.509Z,13.53
2024-02-10T13:21:29.069Z,13.51
2024-02-10T13:23:56.397Z,13.50
2024-02-10T13:26:23.007Z,13.46
2024-02-10T13:28:52.317Z,13.46
2024-02-10T13:31:22.364Z,13.50
2024-02-10T13:33:49.128Z,13.57
2024-02-10T13:36:17.217Z,13.51
2024-02-10T13:39:03.789Z,13.54
2024-02-10T13:41:48.919Z,13.51
2024-02-10T13:44:34.225Z,13.56
2024-02-10T13:47:19.218Z,13.50
2024-02-10T13:50:04.293Z,13.47
2024-02-10T13:52:49.839Z,13.56
2024-02-10T13:55:35.202Z,13.46
2024-02-10T13:58:10.807Z,13.42
2024-02-10T14:00:42.614Z,13.42
2024-02-10T14:03:12.637Z,13.37
2024-02-10T14:05:48.448Z,13.50
2024-02-10T14:08:16.089Z,13.43
2024-02-10T14:10:58.114Z,13.46
2024-02-10T14:13:25.992Z,13.48
2024-02-10T14:15:57.917Z,13.51
2024-02-10T14:18:29.904Z,13.53
2024-02-10T14:21:07.325Z,13.40
2024-02-10T14:23:34.429Z,13.39
2024-02-10T14:26:02.710Z,13.36
2024-02-10T14:29:00.162Z,13.29
2024-02-10T14:31:28.115Z,13.43
2024-02-10T14:33:55.164Z,13.42
2024-02-10T14:36:38.710Z,13.36
2024-02-10T14:39:16.317Z,13.22
2024-02-10T14:41:47.075Z,13.37
2024-02-10T14:44:13.803Z,13.34
2024-02-10T14:46:44.618Z,13.27
2024-02-10T14:49:17.515Z,13.30
2024-02-10T14:51:45.057Z,13.22
2024-02-10T14:54:11.949Z,13.22
2024-02-10T14:56:40.417Z,13.36
2024-02-10T14:59:08.728Z,13.33
2024-02-10T15:01:35.858Z,13.33
2024-02-10T15:04:06.958Z,13.40
2024-02-10T15:06:38.286Z,13.42
2024-02-10T15:09:09.957Z,13.37
2024-02-10T15:11:39.739Z,13.34
2024-02-10T15:14:06.861Z,13.39
2024-02-10T15:16:34.128Z,13.36
2024-02-10T15:19:00.884Z,13.30
2024-02-10T15:21:30.558Z,13.29
2024-02-10T15:23:57.972Z,13.32
2024-02-10T15:26:24.802Z,13.25
2024-02-10T15:28:53.684Z,13.26
2024-02-10T15:31:22.226Z,13.29
2024-02-10T15:33:53.884Z,13.23
2024-02-10T15:36:41.033Z,13.15
2024-02-10T15:39:11.126Z,13.13
2024-02-10T15:41:39.793Z,13.22
2024-02-10T15:44:10.299Z,13.33
2024-02-10T15:46:37.874Z,13.12
2024-02-10T15:49:05.147Z,13.13
2024-02-10T15:51:34.814Z,13.02
2024-02-10T15:54:01.649Z,13.02
2024-02-10T15:56:28.409Z,12.93
2024-02-10T15:58:59.898Z,12.93
2024-02-10T16:01:26.735Z,12.92
2024-02-10T16:03:53.400Z,12.85
2024-02-10T16:06:19.955Z,12.82
2024-02-10T16:08:49.137Z,12.85
2024-02-10T16:11:16.668Z,12.85
2024-02-10T16:13:46.919Z,12.86
2024-02-10T16:16:22.829Z,12.91
2024-02-10T16:18:49.675Z,12.89
2024-02-10T16:21:29.135Z,12.85
2024-02-10T16:23:58.060Z,12.78
2024-02-10T16:26:25.166Z,12.64
2024-02-10T16:28:52.863Z,12.63
2024-02-10T16:31:21.680Z,12.48
2024-02-10T16:33:50.231Z,12.51
2024-02-10T16:36:16.919Z,12.40
2024-02-10T16:38:43.558Z,12.20
2024-02-10T16:41:14.728Z,12.18
2024-02-10T16:43:44.464Z,12.10
2024-02-10T16:46:11.274Z,12.09
2024-02-10T16:48:38.070Z,12.03
2024-02-10T16:51:06.046Z,12.00
2024-02-10T16:53:34.880Z,12.02
2024-02-10T16:56:02.205Z,11.99
2024-02-10T16:58:31.041Z,12.09
2024-02-10T17:00:57.983Z,12.10
2024-02-10T17:03:25.352Z,12.05
2024-02-10T17:06:02.595Z,12.10
2024-02-10T17:08:30.790Z,12.10
2024-02-10T17:10:59.036Z,12.00
2024-02-10T17:13:28.427Z,11.99
2024-02-10T17:15:55.485Z,11.93
2024-02-10T17:18:22.484Z,11.92
2024-02-10T17:21:01.494Z,11.92
2024-02-10T17:23:29.143Z,12.07
2024-02-10T17:25:57.462Z,12.05
2024-02-10T17:28:25.359Z,11.99
2024-02-10T17:31:04.752Z,12.03
2024-02-10T17:33:31.201Z,12.03
2024-02-10T17:35:57.785Z,12.07
2024-02-10T17:38:35.176Z,11.99
2024-02-10T17:41:01.855Z,11.96
2024-02-10T17:43:28.452Z,11.92
2024-02-10T17:45:56.575Z,11.99
2024-02-10T17:48:24.524Z,12.00
2024-02-10T17:50:53.318Z,11.95
2024-02-10T17:53:29.063Z,11.95
2024-02-10T17:55:57.239Z,12.03
2024-02-10T17:58:30.964Z,11.93
2024-02-10T18:00:57.760Z,11.97
2024-02-10T18:03:25.942Z,12.02
2024-02-10T18:05:55.779Z,11.93
2024-02-10T18:08:22.893Z,11.83
2024-02-10T18:10:50.131Z,11.85
2024-02-10T18:13:28.767Z,11.75
2024-02-10T18:15:55.387Z,11.74
2024-02-10T18:18:22.106Z,11.81
2024-02-10T18:20:48.675Z,11.75
2024-02-10T18:23:15.242Z,11.83
2024-02-10T18:25:43.452Z,11.90
2024-02-10T18:28:12.312Z,11.76
2024-02-10T18:30:39.684Z,11.97
2024-02-10T18:33:06.530Z,11.78
2024-02-10T18:35:33.190Z,11.79
2024-02-10T18:38:02.533Z,11.74
2024-02-10T18:40:32.601Z,11.69
2024-02-10T18:43:00.784Z,11.92
2024-02-10T18:45:37.416Z,11.85
2024-02-10T18:48:07.799Z,11.90
2024-02-10T18:50:36.696Z,11.90
2024-02-10T18:53:07.514Z,11.92
2024-02-10T18:57:38.285Z,12.00
2024-02-10T19:00:07.664Z,11.88
2024-02-10T19:02:34.456Z,11.83
2024-02-10T19:05:03.051Z,11.83
2024-02-10T19:07:30.579Z,11.92
2024-02-10T19:09:57.019Z,11.83
2024-02-10T19:12:23.488Z,11.74
2024-02-10T19:14:49.915Z,11.79
2024-02-10T19:17:18.760Z,11.82
2024-02-10T19:19:45.578Z,11.69
2024-02-10T19:22:12.013Z,11.69
2024-02-10T19:24:41.673Z,11.68
2024-02-10T19:27:11.225Z,11.62
2024-02-10T19:29:39.057Z,11.51
2024-02-10T19:32:06.350Z,11.51
2024-02-10T19:34:34.131Z,11.48
2024-02-10T19:37:02.865Z,11.38
2024-02-10T19:39:29.478Z,11.37
2024-02-10T19:41:56.998Z,11.34
2024-02-10T19:44:24.588Z,11.31
2024-02-10T19:46:52.478Z,11.30
2024-02-10T19:49:22.755Z,11.35
2024-02-10T19:51:52.045Z,11.34
2024-02-10T19:54:19.104Z,11.38
2024-02-10T19:56:47.922Z,11.32
2024-02-10T19:59:14.844Z,11.37
2024-02-10T20:01:45.012Z,11.26
2024-02-10T20:04:14.636Z,11.35
2024-02-10T20:06:42.621Z,11.27
2024-02-10T20:09:12.653Z,11.37
2024-02-10T20:11:40.424Z,11.31
2024-02-10T20:14:07.301Z,11.31
2024-02-10T20:16:34.012Z,11.26
2024-02-10T20:19:05.276Z,11.31
2024-02-10T20:21:32.952Z,11.28
2024-02-10T20:23:59.738Z,11.17
2024-02-10T20:26:26.664Z,11.13
2024-02-10T20:28:55.860Z,11.26
2024-02-10T20:31:22.763Z,11.20
2024-02-10T20:33:55.498Z,11.28
2024-02-10T20:36:23.822Z,11.26
2024-02-10T20:38:56.771Z,11.38
2024-02-10T20:41:23.861Z,11.47
2024-02-10T20:43:50.477Z,11.42
2024-02-10T20:46:17.028Z,11.35
2024-02-10T20:48:44.538Z,11.27
2024-02-10T20:51:11.726Z,11.42
2024-02-10T20:53:41.947Z,11.39
2024-02-10T20:56:13.458Z,11.26
2024-02-10T20:58:42.792Z,11.17
2024-02-10T21:01:10.282Z,11.17
2024-02-10T21:03:37.552Z,11.27
2024-02-10T21:06:05.431Z,11.31
2024-02-10T21:08:38.920Z,11.28
2024-02-10T21:11:06.258Z,11.31
2024-02-10T21:13:32.824Z,11.39
2024-02-10T21:15:59.458Z,11.32
2024-02-10T21:18:26.536Z,11.47
2024-02-10T21:20:54.495Z,11.38
2024-02-10T21:23:21.403Z,11.21
2024-02-10T21:25:49.459Z,11.10
2024-02-10T21:28:16.041Z,11.16
2024-02-10T21:30:42.613Z,11.20
2024-02-10T21:33:09.844Z,11.07
2024-02-10T21:35:43.360Z,11.06
2024-02-10T21:38:11.880Z,11.13
2024-02-10T21:40:38.482Z,11.17
2024-02-10T21:43:05.098Z,11.08
2024-02-10T21:45:32.390Z,10.99
2024-02-10T21:47:58.956Z,10.99
2024-02-10T21:50:28.858Z,11.10
2024-02-10T21:52:55.681Z,10.97
2024-02-10T21:55:22.190Z,10.96
2024-02-10T21:57:48.633Z,10.89
2024-02-10T22:00:20.837Z,10.77
2024-02-10T22:02:51.655Z,10.83
2024-02-10T22:05:20.529Z,10.89
2024-02-10T22:07:48.247Z,10.84
2024-02-10T22:10:14.857Z,10.87
2024-02-10T22:12:47.031Z,10.73
2024-02-10T22:15:14.510Z,10.73
2024-02-10T22:17:41.113Z,10.77
2024-02-10T22:20:08.558Z,10.68
2024-02-10T22:22:35.355Z,10.91
2024-02-10T22:25:08.116Z,10.70
2024-02-10T22:27:35.977Z,10.66
2024-02-10T22:30:04.759Z,10.65
2024-02-10T22:32:31.268Z,10.55
2024-02-10T22:34:58.351Z,10.53
2024-02-10T22:37:25.939Z,10.56
2024-02-10T22:39:55.431Z,10.48
2024-02-10T22:42:25.794Z,10.45
2024-02-10T22:44:53.125Z,10.28
2024-02-10T22:47:20.632Z,10.17
2024-02-10T22:49:48.473Z,10.02
2024-02-10T22:52:23.638Z,9.98
2024-02-10T22:54:55.171Z,9.98
2024-02-10T22:57:21.879Z,9.91
2024-02-10T22:59:51.673Z,10.11
2024-02-10T23:02:18.337Z,10.21
2024-02-10T23:04:48.763Z,10.37
2024-02-10T23:07:15.595Z,10.62
2024-02-10T23:09:44.285Z,10.69
2024-02-10T23:12:23.070Z,10.38
2024-02-10T23:14:53.077Z,10.48
2024-02-10T23:17:21.118Z,10.46
2024-02-10T23:19:54.696Z,10.44
2024-02-10T23:22:30.420Z,10.46
2024-02-10T23:25:01.321Z,10.45
2024-02-10T23:27:28.005Z,10.39
2024-02-10T23:29:56.098Z,10.41
2024-02-10T23:32:27.042Z,10.52
2024-02-10T23:34:54.651Z,10.44
2024-02-10T23:37:29.968Z,10.48
2024-02-10T23:39:57.332Z,10.46
2024-02-10T23:42:24.782Z,10.37
2024-02-10T23:44:52.155Z,10.45
2024-02-10T23:47:20.702Z,10.58
2024-02-10T23:49:48.111Z,10.32
2024-02-10T23:52:15.666Z,10.20
2024-02-10T23:54:49.051Z,10.12
2024-02-10T23:57:18.708Z,10.12
2024-02-10T23:59:47.205Z,10.20
